Camas, WA

7:29 AM PDT on October 31, 2014 (GMT -0700)
Lake Pointe | Change Station
CLOSE
Current Station
Personal Weather Station
Location: Camas, WA
Elevation: 380 ft
Nearby Weather Stations

Elev 380 ft 45.61 °N, 122.43 °W | Updated 2 seconds ago

Rain
Rain
50.9 °F
Feels Like 50.9 °F
N
0.0
Wind Variable Wind from SSW
Gusts 0.0 mph

Today
High -- | Low -- °F
--% Chance of Precip.
Yesterday
High -- | Low -- °F
Precip. -- in
7:48 AM 5:57 PM
First Quarter, 56% visible
Pressure 29.71 in
Visibility 3.0 miles
Clouds Scattered Clouds 900 ft
Mostly Cloudy 1900 ft
Overcast 3900 ft
Dew Point 48 °F
Humidity 90%
Rainfall 0.35 in
Snow Depth Not available.
UV 0 out of 12
Pollen .40 out of 12
Air Quality Not available.
Flu Activity Not available.
METAR KTTD 311353Z VRB05G16KT 3SM RA BR SCT009 BKN019 OVC039 12/11 A2971 RMK AO2 SLP060 P0017 T01220106

More Conditions Fewer Conditions

Pressure 29.71 in
Visibility 3.0 miles
Clouds Scattered Clouds 900 ft
Mostly Cloudy 1900 ft
Overcast 3900 ft
Dew Point 48 °F
Humidity 90%
Rainfall 0.35 in
Snow Depth Not available.
UV 0 out of 12
Pollen .40 out of 12
Air Quality Not available.
Flu Activity Not available.
METAR KTTD 311353Z VRB05G16KT 3SM RA BR SCT009 BKN019 OVC039 12/11 A2971 RMK AO2 SLP060 P0017 T01220106

More Conditions Fewer Conditions

10-Day Weather Forecast

Almanac

Astronomy

Oct. 31, 2014 Rise Set
Actual Time
Civil Twilight
Nautical Twilight
Astronomical Twilight
Moon
Length of Visible Light
Length of Day
Tomorrow will be .
, % of the Moon is Illuminated

Today's Extremes

State Highs State Lows

Community

WunderPhotos

Upload Photos

1,766,617 photos uploaded!

WunderBlogs® & News

Nearby

Air Quality

  Air Quality AQ Index Pollutant
Not available.

Snow Depth

Station Depth Elevation

Earthquake Activity

City Distance Mag. Time & Date
Minimum magnitude displayed is 2.5.

Coastal Water Temperatures

Place Temperature

Nearby Weather Stations